KBEC/BEC METAR and TAF weather

Enter ICAO airport designator
Station Type Date Time Source
KBEC METAR 2021/09/24 02:55 UTC NOAA

KBEC 240255Z AUTO 16009KT 10SM CLR 19/07 A3000 RMK AO2 T01900066


Station Type Date Time Source
KBEC Decoded METAR 2021/09/24 02:55 UTC NOAA

Station name not available
Sep 23, 2021 - 10:55 PM EDT / 2021.09.24 0255 UTC
Wind: from the SSE (160 degrees) at 10 MPH (9 KT):0
Visibility: 10 mile(s):0
Sky conditions: clear
Temperature: 66.2 F (19.0 C)
Dew Point: 43.9 F (6.6 C)
Relative Humidity: 44%
Pressure (altimeter): 30 in. Hg (1015 hPa)
ob: KBEC 240255Z AUTO 16009KT 10SM CLR 19/07 A3000 RMK AO2 T01900066
cycle: 3

Station Type Date Time Source
KBEC TAF UTC NOAA

Error!

Example: see airport list